createdAt,value
2022-09-03T00:00:14.387Z,53.75
2022-09-03T00:01:14.402Z,56.17
2022-09-03T00:02:14.374Z,57.53
2022-09-03T00:03:14.375Z,56.13
2022-09-03T00:04:14.428Z,54.35
2022-09-03T00:05:15.417Z,54.24
2022-09-03T00:06:14.315Z,55.47
2022-09-03T00:07:14.360Z,54.59
2022-09-03T00:08:14.422Z,54.98
2022-09-03T00:09:14.372Z,56.08
2022-09-03T00:10:15.646Z,55.43
2022-09-03T00:11:14.318Z,54.42
2022-09-03T00:12:14.312Z,55.68
2022-09-03T00:13:14.216Z,53.45
2022-09-03T00:14:15.269Z,54.40
2022-09-03T00:15:14.220Z,56.67
2022-09-03T00:16:14.251Z,55.41
2022-09-03T00:17:14.175Z,53.56
2022-09-03T00:18:14.183Z,56.81
2022-09-03T00:19:14.217Z,52.38
2022-09-03T00:20:14.136Z,55.30
2022-09-03T00:21:14.157Z,54.08
2022-09-03T00:22:14.137Z,52.49
2022-09-03T00:23:14.162Z,53.09
2022-09-03T00:24:15.164Z,55.90
2022-09-03T00:25:14.155Z,52.56
2022-09-03T00:26:15.248Z,53.21
2022-09-03T00:27:14.137Z,51.81
2022-09-03T00:28:14.178Z,53.25
2022-09-03T00:29:14.157Z,53.88
2022-09-03T00:30:16.961Z,53.36
2022-09-03T00:31:14.191Z,52.82
2022-09-03T00:32:15.138Z,52.59
2022-09-03T00:33:14.186Z,55.11
2022-09-03T00:34:14.136Z,52.51
2022-09-03T00:35:14.175Z,53.09
2022-09-03T00:36:14.136Z,54.92
2022-09-03T00:37:15.640Z,53.05
2022-09-03T00:38:14.077Z,53.11
2022-09-03T00:39:14.138Z,53.24
2022-09-03T00:40:14.131Z,54.62
2022-09-03T00:41:14.162Z,53.51
2022-09-03T00:42:14.039Z,53.20
2022-09-03T00:43:14.083Z,54.36
2022-09-03T00:44:14.007Z,52.16
2022-09-03T00:45:14.142Z,53.24
2022-09-03T00:46:13.999Z,55.22
2022-09-03T00:47:14.070Z,52.41
2022-09-03T00:48:14.130Z,54.26
2022-09-03T00:49:13.996Z,55.32
2022-09-03T00:50:14.038Z,54.38
2022-09-03T00:51:13.977Z,55.26
2022-09-03T00:52:13.997Z,56.47
2022-09-03T00:53:14.013Z,57.86
2022-09-03T00:54:13.954Z,57.05
2022-09-03T00:55:14.017Z,56.89
2022-09-03T00:56:13.945Z,57.19
2022-09-03T00:57:14.012Z,56.58
2022-09-03T00:58:13.985Z,55.05
2022-09-03T00:59:13.860Z,57.00
2022-09-03T01:00:13.846Z,57.11
2022-09-03T01:01:14.068Z,56.57
2022-09-03T01:02:14.086Z,57.17
2022-09-03T01:03:13.856Z,56.73
2022-09-03T01:04:13.943Z,55.97
2022-09-03T01:05:13.946Z,54.76
2022-09-03T01:06:14.896Z,58.54
2022-09-03T01:07:14.582Z,57.23
2022-09-03T01:08:13.891Z,57.90
2022-09-03T01:09:13.965Z,56.16
2022-09-03T01:10:13.867Z,57.93
2022-09-03T01:11:14.003Z,56.95
2022-09-03T01:12:13.833Z,56.68
2022-09-03T01:13:13.869Z,56.03
2022-09-03T01:14:13.851Z,56.32
2022-09-03T01:15:13.816Z,55.65
2022-09-03T01:16:14.879Z,57.46
2022-09-03T01:17:13.731Z,54.65
2022-09-03T01:18:13.781Z,54.43
2022-09-03T01:19:13.807Z,53.97
2022-09-03T01:20:13.691Z,55.15
2022-09-03T01:21:13.747Z,57.35
2022-09-03T01:22:13.845Z,58.51
2022-09-03T01:23:13.760Z,57.02
2022-09-03T01:24:13.661Z,57.55
2022-09-03T01:25:13.805Z,57.61
2022-09-03T01:26:13.838Z,56.25
2022-09-03T01:27:13.771Z,58.13
2022-09-03T01:28:13.813Z,57.06
2022-09-03T01:29:13.742Z,56.02
2022-09-03T01:30:13.823Z,57.46
2022-09-03T01:31:13.724Z,55.99
2022-09-03T01:32:13.791Z,57.08
2022-09-03T01:33:13.697Z,57.25
2022-09-03T01:34:13.716Z,56.41
2022-09-03T01:35:13.714Z,56.55
2022-09-03T01:36:13.661Z,55.71
2022-09-03T01:37:13.679Z,55.34
2022-09-03T01:38:13.692Z,58.67
2022-09-03T01:39:13.718Z,57.49
2022-09-03T01:40:13.692Z,56.97
2022-09-03T01:41:13.689Z,56.44
2022-09-03T01:42:13.653Z,56.50
2022-09-03T01:43:13.580Z,56.77
2022-09-03T01:44:13.562Z,56.17
2022-09-03T01:45:13.673Z,56.13
2022-09-03T01:46:13.582Z,55.89
2022-09-03T01:47:13.642Z,57.65
2022-09-03T01:48:13.586Z,57.04
2022-09-03T01:49:13.737Z,57.34
2022-09-03T01:50:13.586Z,55.58
2022-09-03T01:51:13.479Z,58.16
2022-09-03T01:52:13.585Z,58.74
2022-09-03T01:53:13.579Z,58.61
2022-09-03T01:54:20.784Z,59.33
2022-09-03T01:55:15.601Z,57.42
2022-09-03T01:56:13.545Z,56.03
2022-09-03T01:57:29.165Z,55.05
2022-09-03T01:58:14.451Z,54.84
2022-09-03T01:59:13.515Z,54.84
2022-09-03T02:00:13.557Z,56.96
2022-09-03T02:01:13.523Z,54.15
2022-09-03T02:02:13.528Z,56.25
2022-09-03T02:03:13.475Z,54.31
2022-09-03T02:04:13.487Z,56.27
2022-09-03T02:05:13.497Z,54.60
2022-09-03T02:06:13.489Z,55.07
2022-09-03T02:07:13.467Z,54.96
2022-09-03T02:08:13.391Z,55.39
2022-09-03T02:09:13.372Z,57.07
2022-09-03T02:10:13.351Z,56.69
2022-09-03T02:11:13.449Z,55.41
2022-09-03T02:12:13.312Z,55.57
2022-09-03T02:13:13.313Z,55.54
2022-09-03T02:14:13.319Z,55.68
2022-09-03T02:15:13.368Z,57.23
2022-09-03T02:16:13.506Z,55.66
2022-09-03T02:17:13.382Z,55.61
2022-09-03T02:18:13.358Z,55.47
2022-09-03T02:19:13.361Z,56.95
2022-09-03T02:20:13.373Z,54.52
2022-09-03T02:21:13.385Z,52.96
2022-09-03T02:22:13.322Z,54.78
2022-09-03T02:23:13.339Z,55.07
2022-09-03T02:24:13.336Z,53.71
2022-09-03T02:25:13.315Z,53.83
2022-09-03T02:26:13.328Z,52.32
2022-09-03T02:27:13.371Z,54.44
2022-09-03T02:28:17.270Z,54.13
2022-09-03T02:29:13.333Z,55.61
2022-09-03T02:30:13.290Z,56.55
2022-09-03T02:31:13.449Z,53.86
2022-09-03T02:32:13.304Z,53.82
2022-09-03T02:33:13.267Z,54.80
2022-09-03T02:34:13.257Z,57.47
2022-09-03T02:35:13.454Z,56.60
2022-09-03T02:36:13.492Z,59.11
2022-09-03T02:37:13.163Z,55.46
2022-09-03T02:38:14.168Z,54.24
2022-09-03T02:39:13.226Z,54.49
2022-09-03T02:40:13.141Z,54.73
2022-09-03T02:41:13.144Z,54.82
2022-09-03T02:42:13.150Z,54.81
2022-09-03T02:43:13.100Z,57.10
2022-09-03T02:44:14.089Z,53.88
2022-09-03T02:45:13.065Z,53.05
2022-09-03T02:46:13.259Z,53.63
2022-09-03T02:47:13.173Z,54.56
2022-09-03T02:48:13.159Z,53.70
2022-09-03T02:49:13.153Z,54.18
2022-09-03T02:50:13.174Z,54.17
2022-09-03T02:51:14.386Z,53.81
2022-09-03T02:52:13.222Z,55.60
2022-09-03T02:53:13.106Z,54.67
2022-09-03T02:54:14.921Z,55.52
2022-09-03T02:55:13.110Z,54.13
2022-09-03T02:56:13.096Z,52.83
2022-09-03T02:57:13.114Z,55.44
2022-09-03T02:58:13.131Z,53.43
2022-09-03T02:59:13.950Z,53.79
2022-09-03T03:00:13.065Z,54.75
2022-09-03T03:01:19.698Z,54.53
2022-09-03T03:02:14.075Z,55.45
2022-09-03T03:03:12.980Z,55.74
2022-09-03T03:04:12.952Z,54.01
2022-09-03T03:05:12.952Z,53.72
2022-09-03T03:06:12.973Z,53.95
2022-09-03T03:07:12.917Z,52.50
2022-09-03T03:08:12.944Z,55.20
2022-09-03T03:09:12.926Z,54.54
2022-09-03T03:10:12.908Z,54.42
2022-09-03T03:11:12.899Z,53.07
2022-09-03T03:12:12.882Z,56.19
2022-09-03T03:13:12.883Z,56.46
2022-09-03T03:14:12.929Z,55.12
2022-09-03T03:15:13.008Z,53.70
2022-09-03T03:16:12.963Z,56.10
2022-09-03T03:17:12.940Z,53.96
2022-09-03T03:18:12.928Z,53.04
2022-09-03T03:19:12.982Z,52.74
2022-09-03T03:20:12.905Z,55.29
2022-09-03T03:21:12.897Z,54.39
2022-09-03T03:22:12.926Z,56.26
2022-09-03T03:23:12.882Z,54.55
2022-09-03T03:24:12.912Z,56.27
2022-09-03T03:25:13.917Z,55.62
2022-09-03T03:26:12.868Z,55.39
2022-09-03T03:27:12.845Z,55.50
2022-09-03T03:28:12.862Z,54.75
2022-09-03T03:29:12.867Z,54.83
2022-09-03T03:30:12.893Z,54.68
2022-09-03T03:31:12.850Z,54.27
2022-09-03T03:32:12.729Z,53.60
2022-09-03T03:33:13.854Z,53.08
2022-09-03T03:34:12.733Z,53.63
2022-09-03T03:35:12.738Z,56.21
2022-09-03T03:36:12.688Z,54.67
2022-09-03T03:37:12.804Z,56.82
2022-09-03T03:38:12.866Z,55.69
2022-09-03T03:39:13.473Z,54.01
2022-09-03T03:40:12.795Z,54.93
2022-09-03T03:41:12.781Z,56.56
2022-09-03T03:42:12.791Z,55.35
2022-09-03T03:43:12.770Z,58.00
2022-09-03T03:44:12.749Z,56.18
2022-09-03T03:45:12.725Z,56.33
2022-09-03T03:46:12.849Z,54.32
2022-09-03T03:47:12.772Z,55.32
2022-09-03T03:48:12.714Z,54.65
2022-09-03T03:49:12.723Z,55.56
2022-09-03T03:50:12.676Z,54.89
2022-09-03T03:51:12.703Z,55.45
2022-09-03T03:52:12.680Z,55.04
2022-09-03T03:53:12.675Z,54.82
2022-09-03T03:54:12.908Z,55.84
2022-09-03T03:55:12.677Z,55.95
2022-09-03T03:56:12.693Z,54.93
2022-09-03T03:57:12.666Z,53.79
2022-09-03T03:58:12.569Z,56.64
2022-09-03T03:59:12.564Z,55.52
2022-09-03T04:00:12.526Z,57.94
2022-09-03T04:01:12.549Z,53.72
2022-09-03T04:02:12.619Z,53.90
2022-09-03T04:03:12.498Z,55.76
2022-09-03T04:04:12.547Z,56.16
2022-09-03T04:05:12.496Z,57.06
2022-09-03T04:06:12.617Z,58.31
2022-09-03T04:07:12.656Z,58.16
2022-09-03T04:08:12.581Z,57.99
2022-09-03T04:09:12.578Z,57.91
2022-09-03T04:10:12.576Z,56.74
2022-09-03T04:11:12.568Z,58.05
2022-09-03T04:12:12.580Z,55.54
2022-09-03T04:13:12.522Z,54.33
2022-09-03T04:14:12.566Z,54.35
2022-09-03T04:15:12.518Z,54.20
2022-09-03T04:16:12.566Z,54.96
2022-09-03T04:17:12.501Z,52.67
2022-09-03T04:18:12.589Z,57.36
2022-09-03T04:19:12.494Z,55.27
2022-09-03T04:20:12.424Z,56.10
2022-09-03T04:21:12.411Z,54.60
2022-09-03T04:22:12.374Z,56.26
2022-09-03T04:23:12.390Z,56.42
2022-09-03T04:24:12.469Z,56.91
2022-09-03T04:25:12.352Z,57.93
2022-09-03T04:26:12.443Z,55.29
2022-09-03T04:27:12.447Z,57.43
2022-09-03T04:28:12.472Z,58.31
2022-09-03T04:29:12.444Z,56.03
2022-09-03T04:30:12.423Z,58.47
2022-09-03T04:31:12.438Z,58.78
2022-09-03T04:32:12.365Z,59.89
2022-09-03T04:33:16.157Z,57.42
2022-09-03T04:34:12.402Z,58.49
2022-09-03T04:35:12.392Z,59.38
2022-09-03T04:36:12.388Z,58.39
2022-09-03T04:37:12.352Z,59.31
2022-09-03T04:38:12.348Z,60.21
2022-09-03T04:39:12.423Z,60.08
2022-09-03T04:40:12.341Z,59.76
2022-09-03T04:41:12.380Z,59.03
2022-09-03T04:42:13.329Z,59.89
2022-09-03T04:43:12.368Z,58.16
2022-09-03T04:44:12.357Z,58.76
2022-09-03T04:45:12.288Z,57.56
2022-09-03T04:46:16.090Z,58.16
2022-09-03T04:47:13.316Z,57.16
2022-09-03T04:48:12.205Z,55.91
2022-09-03T04:49:12.223Z,56.30
2022-09-03T04:50:12.201Z,56.16
2022-09-03T04:51:12.202Z,60.07
2022-09-03T04:52:12.255Z,57.85
2022-09-03T04:53:12.256Z,58.89
2022-09-03T04:54:12.134Z,54.75
2022-09-03T04:55:12.271Z,55.08
2022-09-03T04:56:12.821Z,54.97
2022-09-03T04:57:12.769Z,56.99
2022-09-03T04:58:44.318Z,56.77
2022-09-03T04:59:44.867Z,58.58
2022-09-03T05:00:45.283Z,58.19
2022-09-03T05:01:44.187Z,57.80
2022-09-03T05:02:44.180Z,59.29
2022-09-03T05:03:12.073Z,58.01
2022-09-03T05:04:12.186Z,59.10
2022-09-03T05:05:12.134Z,57.08
2022-09-03T05:06:13.255Z,57.84
2022-09-03T05:07:13.057Z,56.61
2022-09-03T05:08:12.143Z,55.87
2022-09-03T05:09:12.142Z,57.66
2022-09-03T05:10:12.143Z,56.45
2022-09-03T05:11:12.098Z,54.19
2022-09-03T05:12:12.004Z,54.59
2022-09-03T05:13:12.010Z,54.59
2022-09-03T05:14:12.077Z,57.49
2022-09-03T05:15:12.008Z,57.10
2022-09-03T05:16:12.057Z,55.38
2022-09-03T05:17:11.981Z,57.72
2022-09-03T05:18:12.097Z,60.02
2022-09-03T05:19:11.970Z,57.83
2022-09-03T05:20:12.026Z,55.86
2022-09-03T05:21:12.284Z,56.64
2022-09-03T05:22:12.023Z,56.75
2022-09-03T05:23:12.033Z,58.57
2022-09-03T05:24:12.054Z,57.98
2022-09-03T05:25:12.122Z,57.14
2022-09-03T05:26:12.008Z,60.04
2022-09-03T05:27:12.101Z,56.02
2022-09-03T05:28:12.000Z,54.12
2022-09-03T05:29:12.569Z,55.31
2022-09-03T05:30:12.026Z,54.87
2022-09-03T05:31:12.020Z,55.26
2022-09-03T05:32:12.011Z,55.74
2022-09-03T05:33:11.949Z,55.77
2022-09-03T05:34:16.668Z,54.08
2022-09-03T05:35:12.945Z,57.43
2022-09-03T05:36:11.869Z,55.23
2022-09-03T05:37:11.868Z,55.07
2022-09-03T05:38:11.875Z,55.72
2022-09-03T06:56:02.721Z,44.32
2022-09-03T06:57:02.713Z,46.66
2022-09-03T06:58:02.789Z,48.08
2022-09-03T06:59:02.691Z,49.00
2022-09-03T07:00:02.760Z,48.20
2022-09-03T07:01:02.782Z,48.07
2022-09-03T07:02:02.818Z,52.95
2022-09-03T07:03:02.600Z,48.75
2022-09-03T07:04:02.635Z,47.36
2022-09-03T07:05:02.609Z,49.57
2022-09-03T07:06:02.664Z,51.50
2022-09-03T07:07:02.545Z,50.48
2022-09-03T07:08:02.514Z,52.37
2022-09-03T07:09:02.613Z,49.75
2022-09-03T07:10:02.602Z,51.51
2022-09-03T07:11:02.643Z,50.04
2022-09-03T07:12:02.608Z,50.23
2022-09-03T07:13:02.617Z,48.70
2022-09-03T07:14:02.648Z,52.74
2022-09-03T07:15:02.583Z,49.21
2022-09-03T07:16:02.785Z,48.83
2022-09-03T07:17:02.596Z,52.18
2022-09-03T07:18:02.618Z,51.62
2022-09-03T07:19:02.567Z,50.42
2022-09-03T07:20:02.652Z,50.35
2022-09-03T07:21:02.635Z,53.76
2022-09-03T07:22:02.561Z,51.40
2022-09-03T07:23:02.587Z,52.07
2022-09-03T07:24:02.521Z,53.47
2022-09-03T07:25:02.584Z,55.46
2022-09-03T07:26:02.439Z,53.24
2022-09-03T07:27:02.444Z,53.63
2022-09-03T07:28:02.439Z,53.78
2022-09-03T07:29:02.398Z,52.34
2022-09-03T07:30:02.503Z,52.14
2022-09-03T07:31:02.498Z,52.67
2022-09-03T07:32:02.554Z,52.67
2022-09-03T07:33:02.476Z,53.21
2022-09-03T07:34:02.448Z,54.22
2022-09-03T07:35:02.456Z,54.52
2022-09-03T07:36:02.478Z,54.41
2022-09-03T07:37:02.512Z,53.63
2022-09-03T07:38:02.450Z,52.89
2022-09-03T07:39:02.697Z,53.18
2022-09-03T07:40:02.503Z,53.11
2022-09-03T07:41:02.468Z,53.31
2022-09-03T07:42:02.473Z,53.04
2022-09-03T07:43:02.434Z,53.56
2022-09-03T07:44:02.396Z,54.22
2022-09-03T07:45:02.355Z,52.99
2022-09-03T07:46:02.377Z,51.67
2022-09-03T07:47:02.445Z,53.08
2022-09-03T07:48:02.388Z,53.00
2022-09-03T07:49:02.376Z,51.64
2022-09-03T07:50:02.374Z,51.48
2022-09-03T07:51:03.097Z,51.77
2022-09-03T07:52:02.290Z,50.94
2022-09-03T07:53:02.220Z,52.36
2022-09-03T07:54:02.369Z,51.70
2022-09-03T07:55:02.384Z,51.12
2022-09-03T07:56:02.311Z,51.81
2022-09-03T07:57:02.363Z,51.76
2022-09-03T07:58:02.337Z,51.91
2022-09-03T07:59:02.296Z,51.48
2022-09-03T08:00:02.304Z,52.02
2022-09-03T08:01:02.331Z,51.11
2022-09-03T08:02:02.337Z,51.14
2022-09-03T08:03:02.298Z,50.99
2022-09-03T08:04:02.386Z,52.47
2022-09-03T08:05:02.238Z,55.47
2022-09-03T08:06:02.281Z,51.28
2022-09-03T08:07:02.252Z,52.02
2022-09-03T08:08:02.279Z,50.45
2022-09-03T08:09:05.031Z,51.48
2022-09-03T08:10:03.120Z,52.55
2022-09-03T08:11:02.108Z,52.49
2022-09-03T08:12:02.111Z,53.11
2022-09-03T08:13:02.146Z,52.60
2022-09-03T08:14:02.062Z,50.81
2022-09-03T08:15:02.180Z,50.21
2022-09-03T08:16:02.205Z,52.65
2022-09-03T08:17:02.169Z,51.19
2022-09-03T08:18:03.666Z,54.09
2022-09-03T08:19:02.249Z,53.34
2022-09-03T08:20:02.171Z,52.03
2022-09-03T08:21:02.187Z,53.61
2022-09-03T08:22:02.114Z,55.38
2022-09-03T08:23:02.160Z,53.77
2022-09-03T08:24:02.108Z,52.96
2022-09-03T08:25:34.058Z,50.55
2022-09-03T08:26:34.121Z,52.32
2022-09-03T08:27:34.050Z,49.61
2022-09-03T08:28:01.996Z,47.89
2022-09-03T08:29:05.726Z,48.44
2022-09-03T08:30:01.966Z,55.86
2022-09-03T08:31:02.121Z,54.19
2022-09-03T08:32:05.100Z,53.78
2022-09-03T08:33:03.075Z,53.26
2022-09-03T08:34:02.024Z,53.00
2022-09-03T08:35:02.057Z,51.57
2022-09-03T08:36:02.021Z,52.87
2022-09-03T08:37:01.934Z,52.19
2022-09-03T08:38:01.904Z,52.64
2022-09-03T08:39:01.893Z,53.31
2022-09-03T08:40:02.067Z,55.01
2022-09-03T08:41:01.940Z,49.96
2022-09-03T08:42:01.986Z,49.89
2022-09-03T08:43:06.572Z,55.52
2022-09-03T08:44:03.140Z,51.28
2022-09-03T08:45:02.006Z,51.53
2022-09-03T08:46:02.010Z,52.82
2022-09-03T08:47:01.946Z,54.15
2022-09-03T08:48:02.023Z,53.97
2022-09-03T08:49:01.921Z,52.66
2022-09-03T08:50:01.960Z,53.80
2022-09-03T08:51:01.885Z,52.22
2022-09-03T08:52:02.977Z,50.37
2022-09-03T08:53:01.898Z,47.99
2022-09-03T08:54:01.851Z,50.36
2022-09-03T08:55:01.816Z,52.67
2022-09-03T08:56:01.809Z,52.04
2022-09-03T08:57:01.780Z,51.98
2022-09-03T08:58:01.752Z,50.48
2022-09-03T08:59:01.746Z,51.69
2022-09-03T09:00:01.767Z,49.96
2022-09-03T09:01:01.970Z,50.71
2022-09-03T09:02:01.948Z,48.38
2022-09-03T09:03:01.794Z,48.02
2022-09-03T09:04:01.841Z,48.70
2022-09-03T09:05:01.848Z,50.12
2022-09-03T09:06:01.843Z,46.92
2022-09-03T09:07:01.882Z,46.75
2022-09-03T09:08:01.805Z,47.15
2022-09-03T09:09:01.840Z,49.78
2022-09-03T09:10:01.815Z,49.07
2022-09-03T09:11:01.871Z,49.47
2022-09-03T09:12:01.764Z,51.30
2022-09-03T09:13:01.772Z,47.92
2022-09-03T09:14:01.767Z,49.36
2022-09-03T09:15:01.754Z,50.51
2022-09-03T09:16:01.853Z,52.75
2022-09-03T09:17:01.772Z,52.02
2022-09-03T09:18:01.744Z,48.90
2022-09-03T09:19:01.806Z,49.79
2022-09-03T09:20:01.611Z,48.87
2022-09-03T09:21:01.606Z,48.91
2022-09-03T09:22:01.633Z,50.82
2022-09-03T09:23:01.634Z,48.91
2022-09-03T09:24:01.606Z,48.97
2022-09-03T09:25:01.602Z,53.45
2022-09-03T09:26:01.573Z,54.10
2022-09-03T09:27:01.597Z,53.19
2022-09-03T09:28:01.570Z,52.47
2022-09-03T09:29:01.563Z,50.00
2022-09-03T09:30:01.686Z,48.82
2022-09-03T09:31:01.744Z,49.50
2022-09-03T09:32:02.140Z,49.63
2022-09-03T09:33:01.625Z,51.14
2022-09-03T09:34:01.698Z,49.52
2022-09-03T09:35:01.624Z,52.09
2022-09-03T09:36:01.834Z,51.59
2022-09-03T09:37:01.572Z,52.41
2022-09-03T09:38:01.633Z,51.61
2022-09-03T09:39:01.558Z,51.78
2022-09-03T09:40:01.625Z,51.67
2022-09-03T09:41:01.624Z,51.45
2022-09-03T09:42:01.566Z,50.76
2022-09-03T09:43:01.576Z,52.05
2022-09-03T09:44:01.536Z,52.36
2022-09-03T09:45:01.439Z,52.20
2022-09-03T09:46:01.520Z,51.90
2022-09-03T09:47:01.434Z,51.64
2022-09-03T09:48:02.610Z,53.20
2022-09-03T09:49:01.418Z,51.47
2022-09-03T09:50:01.518Z,51.16
2022-09-03T09:51:01.894Z,52.45
2022-09-03T09:52:01.523Z,51.87
2022-09-03T09:53:01.560Z,52.42
2022-09-03T09:54:02.117Z,52.36
2022-09-03T09:55:01.496Z,49.23
2022-09-03T09:56:01.458Z,52.07
2022-09-03T09:57:01.533Z,51.70
2022-09-03T09:58:01.455Z,52.04
2022-09-03T09:59:01.462Z,51.40
2022-09-03T10:00:01.441Z,52.90
2022-09-03T10:01:01.413Z,51.83
2022-09-03T10:02:01.493Z,48.41
2022-09-03T10:03:01.612Z,50.05
2022-09-03T10:04:01.476Z,50.03
2022-09-03T10:05:01.459Z,48.23
2022-09-03T10:06:01.436Z,48.28
2022-09-03T10:07:01.386Z,48.97
2022-09-03T10:08:01.625Z,46.82
2022-09-03T10:09:01.284Z,48.85
2022-09-03T10:10:01.253Z,51.72
2022-09-03T10:11:01.268Z,51.37
2022-09-03T10:12:01.250Z,51.88
2022-09-03T10:13:01.374Z,50.72
2022-09-03T10:14:01.254Z,49.42
2022-09-03T10:15:01.400Z,46.12
2022-09-03T10:16:01.460Z,45.84
2022-09-03T10:17:01.405Z,48.15
2022-09-03T10:18:01.438Z,46.44
2022-09-03T10:19:01.315Z,45.16
2022-09-03T10:20:01.455Z,45.70
2022-09-03T10:21:01.328Z,47.80
2022-09-03T10:22:01.349Z,46.44
2022-09-03T10:23:01.306Z,43.70
2022-09-03T10:24:04.937Z,46.71
2022-09-03T10:25:03.310Z,46.77
2022-09-03T10:26:01.282Z,46.90
2022-09-03T10:27:01.275Z,48.67
2022-09-03T10:28:01.484Z,48.25
2022-09-03T10:29:01.293Z,48.04
2022-09-03T10:30:01.325Z,48.52
2022-09-03T10:31:01.176Z,47.69
2022-09-03T10:32:01.101Z,47.34
2022-09-03T10:33:01.235Z,47.30
2022-09-03T10:34:01.092Z,47.96
2022-09-03T10:35:01.091Z,46.36
2022-09-03T10:36:01.129Z,49.17
2022-09-03T10:37:01.089Z,47.35
2022-09-03T10:38:01.090Z,47.14
2022-09-03T10:39:01.206Z,47.31
2022-09-03T10:40:01.228Z,48.75
2022-09-03T10:41:01.250Z,48.89
2022-09-03T10:42:01.691Z,45.88
2022-09-03T10:43:01.189Z,46.21
2022-09-03T10:44:01.140Z,47.97
2022-09-03T10:45:01.167Z,47.04
2022-09-03T10:46:01.217Z,47.56
2022-09-03T10:47:01.102Z,47.47
2022-09-03T10:48:01.156Z,47.13
2022-09-03T10:49:01.092Z,47.88
2022-09-03T10:50:01.107Z,50.39
2022-09-03T10:51:01.080Z,48.93
2022-09-03T10:52:01.133Z,46.03
2022-09-03T10:53:01.139Z,51.82
2022-09-03T10:54:00.983Z,51.87
2022-09-03T10:55:00.951Z,51.31
2022-09-03T10:56:01.055Z,52.37
2022-09-03T10:57:01.143Z,51.33
2022-09-03T10:58:01.106Z,51.33
2022-09-03T10:59:01.023Z,50.13
2022-09-03T11:00:01.090Z,44.75
2022-09-03T11:01:01.103Z,44.87
2022-09-03T11:02:01.075Z,44.94
2022-09-03T11:03:01.124Z,45.92
2022-09-03T11:04:01.056Z,44.10
2022-09-03T11:05:00.987Z,43.79
2022-09-03T11:06:01.043Z,51.33
2022-09-03T11:07:00.990Z,50.73
2022-09-03T11:08:01.000Z,51.44
2022-09-03T11:09:04.463Z,50.88
2022-09-03T11:10:03.025Z,52.71
2022-09-03T11:11:00.939Z,52.40
2022-09-03T11:12:00.955Z,53.46
2022-09-03T11:13:01.000Z,51.73
2022-09-03T11:14:00.973Z,48.55
2022-09-03T11:15:00.922Z,49.35
2022-09-03T11:16:00.855Z,47.85
2022-09-03T11:17:00.822Z,46.57
2022-09-03T11:18:00.976Z,44.66
2022-09-03T11:19:00.911Z,46.15
2022-09-03T11:20:00.939Z,44.96
2022-09-03T11:21:00.884Z,44.65
2022-09-03T11:22:00.901Z,44.19
2022-09-03T11:23:00.874Z,46.58
2022-09-03T11:24:00.955Z,51.94
2022-09-03T11:25:00.926Z,52.57
2022-09-03T11:26:00.895Z,52.27
2022-09-03T11:27:00.916Z,51.21
2022-09-03T11:28:00.886Z,52.13
2022-09-03T11:29:00.923Z,52.81
2022-09-03T11:30:00.837Z,51.21
2022-09-03T11:31:32.807Z,47.13
2022-09-03T11:32:00.717Z,51.60
2022-09-03T11:33:32.781Z,51.45
2022-09-03T11:34:33.129Z,52.70
2022-09-03T11:35:00.655Z,50.81
2022-09-03T11:36:00.761Z,52.57
2022-09-03T11:37:00.672Z,50.10
2022-09-03T11:38:00.778Z,49.63
2022-09-03T11:39:00.803Z,46.26
2022-09-03T11:40:00.901Z,50.03
2022-09-03T11:41:00.766Z,45.44
2022-09-03T11:42:00.753Z,48.44
2022-09-03T11:43:00.747Z,45.93
2022-09-03T11:44:04.458Z,45.78
2022-09-03T11:45:01.781Z,46.43
2022-09-03T11:46:00.801Z,46.52
2022-09-03T11:47:00.741Z,49.51
2022-09-03T11:48:00.709Z,47.42
2022-09-03T11:49:00.690Z,47.22
2022-09-03T11:50:00.752Z,46.53
2022-09-03T11:51:00.680Z,47.59
2022-09-03T11:52:00.984Z,49.32
2022-09-03T11:53:00.655Z,49.97
2022-09-03T11:54:00.793Z,50.21
2022-09-03T11:55:00.657Z,50.40
2022-09-03T11:56:00.622Z,48.06
2022-09-03T11:57:00.626Z,46.16
2022-09-03T11:58:00.630Z,46.65
2022-09-03T11:59:00.532Z,48.52
2022-09-03T12:00:00.530Z,51.64
2022-09-03T12:01:00.591Z,52.83
2022-09-03T12:02:00.630Z,52.28
2022-09-03T12:03:00.552Z,47.49
2022-09-03T12:04:00.520Z,47.17
2022-09-03T12:05:00.695Z,51.52
2022-09-03T12:06:00.660Z,51.86
2022-09-03T12:07:00.613Z,49.43
2022-09-03T12:08:02.357Z,48.63
2022-09-03T12:09:00.581Z,47.95
2022-09-03T12:10:00.567Z,49.43
2022-09-03T12:11:00.608Z,48.02
2022-09-03T12:12:00.545Z,50.14
2022-09-03T12:13:00.584Z,48.96
2022-09-03T12:14:00.508Z,51.89
2022-09-03T12:15:00.567Z,53.06
2022-09-03T12:16:00.601Z,52.08
2022-09-03T12:17:01.579Z,51.55
2022-09-03T12:18:00.544Z,48.14
2022-09-03T12:19:00.382Z,47.45
2022-09-03T12:20:00.436Z,46.84
2022-09-03T12:21:00.399Z,45.89
2022-09-03T12:22:00.400Z,47.55
2022-09-03T12:23:00.471Z,49.59
2022-09-03T12:24:00.454Z,50.96
2022-09-03T12:25:00.438Z,48.71
2022-09-03T12:26:00.486Z,47.54
2022-09-03T12:27:00.505Z,47.35
2022-09-03T12:28:00.427Z,48.87
2022-09-03T12:29:00.452Z,49.88
2022-09-03T12:30:00.602Z,51.54
2022-09-03T12:31:00.504Z,50.09
2022-09-03T12:32:00.447Z,50.71
2022-09-03T12:33:00.451Z,52.50
2022-09-03T12:34:00.405Z,51.56
2022-09-03T12:35:00.393Z,49.21
2022-09-03T12:36:00.768Z,50.39
2022-09-03T12:37:00.263Z,49.36
2022-09-03T12:38:09.278Z,51.55
2022-09-03T12:39:17.578Z,49.69
2022-09-03T12:40:07.346Z,49.95
2022-09-03T12:42:02.261Z,49.77
2022-09-03T12:44:02.297Z,48.57
2022-09-03T12:45:00.219Z,48.38
2022-09-03T12:46:16.047Z,49.52
2022-09-03T12:48:02.312Z,49.39
2022-09-03T12:50:02.193Z,50.28
2022-09-03T12:51:46.744Z,50.21
2022-09-03T12:52:05.461Z,50.55
2022-09-03T12:53:02.175Z,51.79
2022-09-03T12:54:00.267Z,49.50
2022-09-03T12:55:00.252Z,47.60
2022-09-03T12:56:00.242Z,49.71
2022-09-03T12:57:00.238Z,50.21
2022-09-03T12:58:02.567Z,55.61
2022-09-03T12:59:01.242Z,52.84
2022-09-03T13:00:00.245Z,52.40
2022-09-03T13:01:00.355Z,52.17
2022-09-03T13:02:00.326Z,50.05
2022-09-03T13:03:00.089Z,50.26
2022-09-03T13:04:00.070Z,48.29
2022-09-03T13:05:00.105Z,48.24
2022-09-03T13:06:00.123Z,49.01
2022-09-03T13:07:00.069Z,51.38
2022-09-03T13:08:00.130Z,51.73
2022-09-03T13:09:01.072Z,49.24
2022-09-03T13:10:00.034Z,49.70
2022-09-03T13:11:00.070Z,48.88
2022-09-03T13:12:00.147Z,51.98
2022-09-03T13:13:00.118Z,50.04
2022-09-03T13:14:00.180Z,49.43
2022-09-03T13:15:01.154Z,49.78
2022-09-03T13:16:00.123Z,51.75
2022-09-03T13:17:00.185Z,48.88
2022-09-03T13:18:00.096Z,49.96
2022-09-03T13:19:00.066Z,50.18
2022-09-03T13:20:00.187Z,55.89
2022-09-03T13:21:00.134Z,51.47
2022-09-03T13:22:00.162Z,50.40
2022-09-03T13:23:00.084Z,53.79
2022-09-03T13:24:00.055Z,51.10
2022-09-03T13:24:59.975Z,48.69
2022-09-03T13:26:03.970Z,50.06
2022-09-03T13:27:01.916Z,50.43
2022-09-03T13:27:59.906Z,50.19
2022-09-03T13:28:59.902Z,51.99
2022-09-03T13:29:59.899Z,49.53
2022-09-03T13:30:59.912Z,52.64
2022-09-03T13:32:03.921Z,50.75
2022-09-03T13:33:01.898Z,52.15
2022-09-03T13:33:59.861Z,50.57
2022-09-03T13:34:59.991Z,48.62
2022-09-03T13:35:59.949Z,49.92
2022-09-03T13:36:59.945Z,52.10
2022-09-03T13:37:59.954Z,50.28
2022-09-03T13:39:00.919Z,50.18
2022-09-03T13:40:00.007Z,50.03
2022-09-03T13:40:59.952Z,49.84
2022-09-03T13:41:59.925Z,51.33
2022-09-03T13:42:59.949Z,49.84
2022-09-03T13:43:59.928Z,48.72
2022-09-03T13:44:59.897Z,49.96
2022-09-03T13:46:00.385Z,51.69
2022-09-03T13:46:59.917Z,51.13
2022-09-03T13:47:59.887Z,52.06
2022-09-03T13:48:59.848Z,51.85
2022-09-03T13:49:59.870Z,50.94
2022-09-03T13:51:00.182Z,52.04
2022-09-03T13:52:00.730Z,50.40
2022-09-03T13:52:59.733Z,50.34
2022-09-03T13:53:59.779Z,50.68
2022-09-03T13:54:59.714Z,49.81
2022-09-03T13:55:59.697Z,51.06
2022-09-03T13:56:59.694Z,50.03
2022-09-03T13:58:01.833Z,49.49
2022-09-03T13:59:00.712Z,49.62
2022-09-03T13:59:59.679Z,50.48
2022-09-03T14:01:00.342Z,52.06
2022-09-03T14:01:59.826Z,51.65
2022-09-03T14:02:59.749Z,47.95
2022-09-03T14:03:59.787Z,48.15
2022-09-03T14:04:59.747Z,48.19
2022-09-03T14:05:59.769Z,49.82
2022-09-03T14:06:59.795Z,53.23
2022-09-03T14:07:59.744Z,47.93
2022-09-03T14:09:00.701Z,48.17
2022-09-03T14:09:59.746Z,48.31
2022-09-03T14:10:59.737Z,48.08
2022-09-03T14:11:59.818Z,47.59
2022-09-03T14:12:59.684Z,48.89